Albany, Missouri
Current Conditions -  °F | °C
As of 3:53 AM on Friday 28 Nov 2014 (Local Time) from KLWD Reporting Station
Clear Clear  
Wind Chill: -9°   Ceiling: Unl
Heat Index: -4°   Visibility: 10mi
Dew Point: -6°   Wind: 9mph
Humidity: 85%   Direction: 160°SSE
Pressure: 30.07"   Gusts: 18mph
Location:  40.25°N, 94.33°W
Report Text: KLWD 280953Z AUTO 16008G16KT 10SM CLR M04/M06 A3007 RMK AO2 SLP200 T10391061
Loading
Personal Weather Stations






























Interactive Weather Map New forecast layout! Learn more

10-Day Weather Forecast

Advertisements
Track Severe Weather on mobile